Time;durP1;ratioP1;P1;durP2;ratioP2;P2;SDS_P1;SDS_P2;PMS_P1;PMS_P2;Temp;Humidity;BMP_temperature;BMP_pressure;BME280_temperature;BME280_humidity;BME280_pressure;Samples;Min_cycle;Max_cycle;Signal;HPM_P1;HPM_P2
2021/01/16 00:00:57;;;;;;;7.18;4.22;;;-3275.00;77.30;;;;;;5033349;28;20497;-72
2021/01/16 00:03:22;;;;;;;6.10;3.92;;;-3275.00;77.60;;;;;;5015560;28;20036;-73
2021/01/16 00:05:49;;;;;;;8.18;4.15;;;-3274.90;76.10;;;;;;5015393;28;20026;-71
2021/01/16 00:08:18;;;;;;;14.32;5.00;;;-3274.80;77.90;;;;;;5016523;28;20113;-73
2021/01/16 00:10:49;;;;;;;8.55;4.82;;;-3274.90;77.40;;;;;;5033267;28;20049;-71
2021/01/16 00:13:25;;;;;;;9.23;4.68;;;-3274.90;76.30;;;;;;5033238;28;20045;-71
2021/01/16 00:15:54;;;;;;;8.38;4.63;;;-3274.80;77.70;;;;;;5032772;28;20017;-71
2021/01/16 00:18:24;;;;;;;7.78;4.93;;;-3274.80;76.90;;;;;;5014604;28;20082;-72
2021/01/16 00:20:52;;;;;;;9.35;4.75;;;-3274.90;76.80;;;;;;5033098;28;20100;-71
2021/01/16 00:23:18;;;;;;;10.52;4.70;;;-3274.90;78.20;;;;;;5015174;28;20076;-71
2021/01/16 00:25:44;;;;;;;8.77;4.22;;;-3274.90;77.10;;;;;;5032685;28;20026;-70
2021/01/16 00:28:23;;;;;;;7.43;4.40;;;-3274.90;77.00;;;;;;5032480;28;20021;-72
2021/01/16 00:30:49;;;;;;;6.65;4.30;;;-3274.90;77.10;;;;;;5032065;28;20028;-70
2021/01/16 00:33:26;;;;;;;8.35;4.35;;;-3274.90;77.50;;;;;;5031968;28;20390;-71
2021/01/16 00:35:54;;;;;;;7.35;4.30;;;-3274.80;76.40;;;;;;5015141;28;20029;-72
2021/01/16 00:38:20;;;;;;;9.77;4.82;;;-3274.90;77.40;;;;;;5014433;28;20029;-71
2021/01/16 00:40:46;;;;;;;8.07;4.43;;;-3274.80;76.70;;;;;;5032960;28;20028;-71
2021/01/16 00:43:14;;;;;;;7.13;4.40;;;-3274.80;76.80;;;;;;5032807;28;20029;-71
2021/01/16 00:45:40;;;;;;;7.20;4.25;;;-3274.80;75.60;;;;;;5011640;28;20381;-71
2021/01/16 00:48:14;;;;;;;7.72;4.35;;;-3274.70;76.40;;;;;;5028706;28;20402;-70
2021/01/16 00:50:41;;;;;;;9.82;5.18;;;-3274.70;75.70;;;;;;5017474;28;20053;-70
2021/01/16 00:53:07;;;;;;;8.50;5.43;;;-3274.80;75.80;;;;;;5022991;28;20506;-70
2021/01/16 00:55:34;;;;;;;8.18;5.05;;;-3274.70;77.50;;;;;;5023924;28;20025;-70
2021/01/16 00:58:11;;;;;;;8.98;5.22;;;-3274.70;78.60;;;;;;5032892;28;20010;-73
2021/01/16 01:00:38;;;;;;;8.43;5.20;;;-3274.70;78.50;;;;;;5037626;28;20017;-72
2021/01/16 01:03:05;;;;;;;8.73;5.75;;;-3274.70;77.70;;;;;;5044355;28;20017;-71
2021/01/16 01:05:33;;;;;;;9.15;4.97;;;-3274.70;77.20;;;;;;5024666;28;20092;-70
2021/01/16 01:07:59;;;;;;;9.85;5.07;;;-3274.70;77.70;;;;;;5032711;28;20014;-71
2021/01/16 01:10:42;;;;;;;8.13;4.85;;;-3274.80;77.50;;;;;;5014863;28;20383;-71
2021/01/16 01:13:09;;;;;;;8.73;4.80;;;-3274.70;78.20;;;;;;5024183;28;20378;-71
2021/01/16 01:15:36;;;;;;;9.93;5.90;;;-3274.70;77.20;;;;;;5024497;28;20033;-71
2021/01/16 01:18:02;;;;;;;8.25;4.90;;;-3274.70;76.90;;;;;;5014905;28;20121;-71
2021/01/16 01:20:29;;;;;;;9.27;4.95;;;-3274.70;77.30;;;;;;5028725;28;20104;-71
2021/01/16 01:22:55;;;;;;;13.07;6.15;;;-3274.70;77.40;;;;;;5021978;28;20037;-71
2021/01/16 01:25:20;;;;;;;8.45;5.10;;;-3274.70;77.50;;;;;;5027067;28;20470;-72
2021/01/16 01:27:52;;;;;;;10.30;5.85;;;-3274.70;77.60;;;;;;5025587;28;20079;-72
2021/01/16 01:30:20;;;;;;;11.40;5.43;;;-3274.80;78.00;;;;;;5014031;28;20439;-72
2021/01/16 01:32:45;;;;;;;8.07;4.38;;;-3274.80;77.60;;;;;;5026486;28;20022;-71
2021/01/16 01:35:11;;;;;;;9.90;5.55;;;-3274.70;76.80;;;;;;5016430;28;20168;-72
2021/01/16 01:37:47;;;;;;;10.25;5.45;;;-3274.70;78.80;;;;;;5022500;28;20021;-71
2021/01/16 01:40:15;;;;;;;11.20;6.00;;;-3274.70;78.20;;;;;;5015435;28;20026;-71
2021/01/16 01:42:41;;;;;;;10.95;5.95;;;-3274.70;78.20;;;;;;5024274;28;20026;-71
2021/01/16 01:45:13;;;;;;;7.68;5.53;;;-3274.70;77.80;;;;;;5031298;28;20053;-72
2021/01/16 01:47:44;;;;;;;7.05;5.20;;;-3274.70;78.30;;;;;;5031076;28;20033;-70
2021/01/16 01:50:12;;;;;;;9.40;6.25;;;-3274.70;77.90;;;;;;5047953;28;20522;-72
2021/01/16 01:52:39;;;;;;;10.18;5.90;;;-3274.60;79.10;;;;;;5018051;28;20025;-72
2021/01/16 01:55:08;;;;;;;8.43;5.40;;;-3274.70;79.50;;;;;;5051570;28;20029;-71
2021/01/16 01:57:38;;;;;;;7.25;5.03;;;-3274.70;78.90;;;;;;5021378;28;20163;-71
2021/01/16 02:00:09;;;;;;;9.32;5.53;;;-3274.80;78.80;;;;;;5029600;28;20040;-72
2021/01/16 02:02:36;;;;;;;8.32;5.20;;;-3274.90;77.70;;;;;;5035626;28;20025;-71
2021/01/16 02:05:07;;;;;;;8.95;5.72;;;-3274.90;78.70;;;;;;5026179;28;20030;-72
2021/01/16 02:07:38;;;;;;;8.75;5.43;;;-3274.90;78.90;;;;;;5038420;28;20493;-72
2021/01/16 02:10:23;;;;;;;9.77;5.63;;;-3274.90;78.60;;;;;;5047460;28;20064;-70
2021/01/16 02:12:54;;;;;;;9.88;5.70;;;-3274.80;79.30;;;;;;5037171;28;20017;-72
2021/01/16 02:15:38;;;;;;;;;;;-3274.80;78.90;;;;;;5042242;28;20034;-72
2021/01/16 02:18:22;;;;;;;12.25;6.07;;;-3274.70;80.00;;;;;;5050597;28;19944;-71
2021/01/16 02:20:48;;;;;;;11.68;5.88;;;-3274.80;80.70;;;;;;5023777;28;20021;-71
2021/01/16 02:23:29;;;;;;;10.55;6.32;;;-3274.70;80.90;;;;;;5024321;28;20432;-70
2021/01/16 02:26:16;;;;;;;8.10;5.05;;;-3274.80;80.60;;;;;;5031884;28;20026;-69
2021/01/16 02:29:03;;;;;;;8.98;5.85;;;-3274.80;79.50;;;;;;5034506;28;20029;-72
2021/01/16 02:31:55;;;;;;;9.43;5.75;;;-3274.70;80.00;;;;;;5048796;28;20471;-71
2021/01/16 02:34:25;;;;;;;9.27;5.32;;;-3274.70;80.30;;;;;;5049289;28;20063;-71
2021/01/16 02:37:00;;;;;;;10.45;5.68;;;-3274.70;79.50;;;;;;5025470;28;20052;-71
2021/01/16 02:39:51;;;;;;;9.52;5.47;;;-3274.70;79.90;;;;;;5042277;28;20029;-70
2021/01/16 02:42:25;;;;;;;9.27;5.22;;;-3274.50;81.20;;;;;;5021377;28;20024;-72
2021/01/16 02:44:57;;;;;;;10.18;5.47;;;-3274.50;81.30;;;;;;5037023;28;20071;-72
2021/01/16 02:47:36;;;;;;;9.70;5.63;;;-3274.50;80.60;;;;;;5041021;28;20448;-71
2021/01/16 02:50:08;;;;;;;10.30;6.13;;;-3274.50;81.60;;;;;;5017565;28;20059;-71
2021/01/16 02:52:45;;;;;;;10.80;5.90;;;-3274.40;82.40;;;;;;5017214;28;20040;-71
2021/01/16 02:55:11;;;;;;;10.90;6.53;;;-3274.40;82.20;;;;;;5024288;28;20018;-71
2021/01/16 02:57:37;;;;;;;8.40;5.10;;;-3274.30;81.90;;;;;;5028260;28;20048;-70
2021/01/16 03:00:08;;;;;;;8.13;5.15;;;-3274.30;81.70;;;;;;5020902;28;20493;-71
2021/01/16 03:02:33;;;;;;;7.78;4.60;;;-3274.40;81.40;;;;;;5037047;28;20029;-72
2021/01/16 03:04:59;;;;;;;7.60;4.63;;;-3274.30;81.80;;;;;;5029611;28;20104;-72
2021/01/16 03:07:28;;;;;;;8.48;4.50;;;-3274.20;81.10;;;;;;5023294;28;20025;-71
2021/01/16 03:09:56;;;;;;;8.80;5.00;;;-3274.20;82.40;;;;;;5034322;28;20038;-73
2021/01/16 03:12:21;;;;;;;9.10;5.20;;;-3274.20;81.60;;;;;;5050616;28;20027;-72
2021/01/16 03:14:57;;;;;;;9.95;5.32;;;-3274.20;82.00;;;;;;5039867;28;20104;-72
2021/01/16 03:17:35;;;;;;;8.38;5.22;;;-3274.20;81.50;;;;;;5043449;28;20100;-72
2021/01/16 03:20:02;;;;;;;8.05;4.60;;;-3274.20;81.50;;;;;;5049987;28;20448;-72
2021/01/16 03:22:28;;;;;;;9.98;5.07;;;-3274.20;81.80;;;;;;5037490;28;20025;-72
2021/01/16 03:24:56;;;;;;;9.52;5.05;;;-3274.20;81.90;;;;;;5047205;28;20017;-70
2021/01/16 03:27:23;;;;;;;8.75;5.38;;;-3274.10;81.20;;;;;;5026049;28;20518;-72
2021/01/16 03:29:50;;;;;;;11.35;5.93;;;-3274.10;82.20;;;;;;5039681;28;20064;-72
2021/01/16 03:32:18;;;;;;;9.02;4.95;;;-3274.00;81.50;;;;;;5050560;28;20025;-72
2021/01/16 03:34:45;;;;;;;8.85;5.00;;;-3274.00;82.50;;;;;;5021236;28;20024;-71
2021/01/16 03:37:11;;;;;;;9.35;4.85;;;-3274.00;80.90;;;;;;5025102;28;20119;-72
2021/01/16 03:39:38;;;;;;;11.30;6.40;;;-3273.90;83.00;;;;;;5041763;28;20521;-72
2021/01/16 03:42:06;;;;;;;7.88;5.07;;;-3274.00;82.80;;;;;;5026655;28;20048;-69
2021/01/16 03:44:31;;;;;;;8.35;5.30;;;-3273.90;82.40;;;;;;5048063;28;20097;-72
2021/01/16 03:46:57;;;;;;;7.80;4.47;;;-3273.80;81.50;;;;;;5046382;28;20061;-71
2021/01/16 03:49:23;;;;;;;8.93;5.20;;;-3273.70;82.20;;;;;;5044019;28;20296;-71
2021/01/16 03:51:49;;;;;;;9.32;6.25;;;-3273.70;82.50;;;;;;5022050;28;20371;-71
2021/01/16 03:54:15;;;;;;;10.30;5.65;;;-3273.70;82.60;;;;;;5018429;28;20031;-72
2021/01/16 03:56:43;;;;;;;8.52;5.00;;;-3273.70;82.10;;;;;;5049145;28;20109;-72
2021/01/16 03:59:09;;;;;;;11.55;5.30;;;-3273.60;82.50;;;;;;5041957;28;20029;-72
2021/01/16 04:01:37;;;;;;;8.93;5.30;;;-3273.50;82.70;;;;;;5041203;28;20396;-72
2021/01/16 04:04:03;;;;;;;9.30;5.55;;;-3273.50;82.90;;;;;;5031423;28;20090;-72
2021/01/16 04:06:29;;;;;;;11.80;5.60;;;-3273.50;83.00;;;;;;5040433;28;20022;-72
2021/01/16 04:08:55;;;;;;;9.40;5.72;;;-3273.50;83.50;;;;;;5035114;28;20050;-72
2021/01/16 04:11:21;;;;;;;9.18;5.28;;;-3273.60;83.50;;;;;;5043014;28;20475;-72
2021/01/16 04:13:46;;;;;;;8.40;5.15;;;-3273.70;82.40;;;;;;5046975;28;20378;-73
2021/01/16 04:16:12;;;;;;;7.30;4.38;;;-3273.70;81.60;;;;;;5036921;28;20029;-71
2021/01/16 04:18:38;;;;;;;9.00;5.38;;;-3273.80;82.00;;;;;;5030569;28;20025;-71
2021/01/16 04:21:04;;;;;;;7.88;5.10;;;-3273.80;81.90;;;;;;5040127;28;20504;-72
2021/01/16 04:23:30;;;;;;;6.50;4.53;;;-3273.90;82.20;;;;;;5041611;28;20033;-72
2021/01/16 04:25:56;;;;;;;7.90;4.60;;;-3273.90;80.60;;;;;;5032765;28;20030;-71
2021/01/16 04:28:21;;;;;;;7.28;4.85;;;-3273.90;80.40;;;;;;5030903;28;20507;-72
2021/01/16 04:30:47;;;;;;;6.90;4.55;;;-3274.00;79.40;;;;;;5020251;28;20032;-73
2021/01/16 04:33:13;;;;;;;318.50;157.48;;;-3273.90;78.70;;;;;;5045737;28;20037;-71
2021/01/16 04:35:39;;;;;;;16.52;9.25;;;-3274.10;81.10;;;;;;5048964;28;20268;-70
2021/01/16 04:38:05;;;;;;;8.23;4.70;;;-3274.00;79.40;;;;;;5038693;28;20030;-71
2021/01/16 04:40:34;;;;;;;6.78;4.22;;;-3274.10;79.40;;;;;;5033136;28;20091;-71
2021/01/16 04:43:02;;;;;;;7.20;4.07;;;-3274.10;79.40;;;;;;5038615;28;20491;-72
2021/01/16 04:45:28;;;;;;;7.88;4.85;;;-3274.10;79.10;;;;;;5028136;28;20471;-71
2021/01/16 04:47:58;;;;;;;55.67;26.00;;;-3274.10;79.30;;;;;;5033992;28;20032;-71
2021/01/16 04:50:27;;;;;;;17.38;9.57;;;-3274.00;79.10;;;;;;5035589;28;20029;-71
2021/01/16 04:53:06;;;;;;;46.22;19.00;;;-3274.00;79.30;;;;;;5028249;28;20467;-72
2021/01/16 04:55:34;;;;;;;9.60;5.25;;;-3274.10;80.30;;;;;;5026174;28;20119;-72
2021/01/16 04:58:19;;;;;;;9.95;4.30;;;-3274.00;79.30;;;;;;5018398;28;20486;-73
2021/01/16 05:00:44;;;;;;;10.07;4.65;;;-3274.00;80.50;;;;;;5037141;28;20544;-72
2021/01/16 05:03:14;;;;;;;9.07;4.65;;;-3274.10;80.80;;;;;;5025628;28;20029;-70
2021/01/16 05:05:42;;;;;;;8.43;5.40;;;-3274.10;80.00;;;;;;5024092;28;20041;-71
2021/01/16 05:08:09;;;;;;;7.57;4.57;;;-3274.00;80.50;;;;;;5033707;28;20440;-72
2021/01/16 05:10:40;;;;;;;7.00;4.40;;;-3274.00;79.80;;;;;;5035910;28;20078;-72
2021/01/16 05:13:11;;;;;;;6.70;3.70;;;-3274.00;79.70;;;;;;5043687;28;20049;-72
2021/01/16 05:15:40;;;;;;;7.00;4.18;;;-3273.90;80.10;;;;;;5026750;28;20025;-72
2021/01/16 05:18:07;;;;;;;6.38;4.25;;;-3273.90;81.40;;;;;;5035366;28;20021;-71
2021/01/16 05:20:35;;;;;;;9.55;4.82;;;-3273.80;80.90;;;;;;5035156;28;20052;-73
2021/01/16 05:23:16;;;;;;;7.50;3.78;;;-3273.90;81.30;;;;;;5044559;28;20124;-73
2021/01/16 05:25:51;;;;;;;6.85;4.38;;;-3273.90;81.30;;;;;;5044797;28;20029;-72
2021/01/16 05:28:21;;;;;;;5.65;3.85;;;-3273.80;80.40;;;;;;5036058;28;20025;-71
2021/01/16 05:30:58;;;;;;;10.35;3.92;;;-3273.80;80.70;;;;;;5043846;28;20483;-71
2021/01/16 05:33:26;;;;;;;5.95;4.22;;;-3273.80;81.00;;;;;;5059281;28;20081;-72
2021/01/16 05:35:55;;;;;;;7.28;3.83;;;-3273.80;80.10;;;;;;5041341;28;20110;-71
2021/01/16 05:38:35;;;;;;;7.40;4.10;;;-3273.90;80.50;;;;;;5016801;28;20026;-70
2021/01/16 05:41:12;;;;;;;7.55;3.97;;;-3273.90;80.80;;;;;;5044209;28;20483;-71
2021/01/16 05:43:40;;;;;;;7.22;4.60;;;-3273.70;80.80;;;;;;5021646;28;20483;-72
2021/01/16 05:46:11;;;;;;;8.00;4.00;;;-3273.70;80.80;;;;;;5034931;28;20506;-71
2021/01/16 05:48:38;;;;;;;6.43;4.03;;;-3273.80;80.90;;;;;;5081062;23;20089;-66
2021/01/16 05:51:04;;;;;;;9.07;5.00;;;-3273.90;80.50;;;;;;5063007;28;20080;-68
2021/01/16 05:53:30;;;;;;;10.07;4.63;;;-3273.80;80.30;;;;;;5061357;28;20029;-65
2021/01/16 05:55:57;;;;;;;6.82;4.15;;;-3273.80;80.70;;;;;;5056196;28;20025;-67
2021/01/16 05:58:31;;;;;;;6.18;4.00;;;-3273.90;81.10;;;;;;5066111;28;20478;-67
2021/01/16 06:01:02;;;;;;;8.63;3.63;;;-3273.90;80.20;;;;;;5058289;28;20021;-67
2021/01/16 06:03:30;;;;;;;6.03;3.80;;;-3273.90;80.70;;;;;;5058723;28;20112;-67
2021/01/16 06:05:56;;;;;;;6.35;4.10;;;-3273.90;80.00;;;;;;5060652;28;20033;-67
2021/01/16 06:08:22;;;;;;;8.07;4.88;;;-3274.00;80.20;;;;;;5067326;28;20092;-67
2021/01/16 06:10:55;;;;;;;6.88;4.57;;;-3274.00;80.70;;;;;;5055621;28;20017;-67
2021/01/16 06:13:23;;;;;;;8.02;4.72;;;-3273.90;80.40;;;;;;5061245;28;20047;-67
2021/01/16 06:15:56;;;;;;;6.70;4.13;;;-3273.90;80.90;;;;;;5063806;28;20027;-68
2021/01/16 06:18:36;;;;;;;11.68;5.20;;;-3273.90;81.40;;;;;;5054267;28;20017;-67
2021/01/16 06:21:04;;;;;;;11.85;6.40;;;-3274.00;80.80;;;;;;5063673;28;20052;-67
2021/01/16 06:23:33;;;;;;;11.25;4.80;;;-3274.00;81.50;;;;;;5063004;28;20040;-67
2021/01/16 06:26:06;;;;;;;6.47;4.50;;;-3274.00;80.40;;;;;;5058845;28;20021;-67
2021/01/16 06:28:52;;;;;;;8.70;4.75;;;-3273.90;80.30;;;;;;5038648;28;20622;-68
2021/01/16 06:31:26;;;;;;;10.05;4.47;;;-3273.90;80.70;;;;;;5062566;28;20025;-67
2021/01/16 06:34:10;;;;;;;9.13;5.03;;;-3274.10;80.90;;;;;;5069357;28;20283;-67
2021/01/16 06:36:37;;;;;;;8.48;5.72;;;-3274.00;80.70;;;;;;5049121;28;20374;-67
2021/01/16 06:39:08;;;;;;;9.00;5.30;;;-3273.90;81.30;;;;;;5062453;28;20031;-67
2021/01/16 06:41:44;;;;;;;8.93;5.35;;;-3274.00;81.60;;;;;;5064298;28;20486;-67
2021/01/16 06:44:14;;;;;;;10.13;6.22;;;-3274.00;81.80;;;;;;5051775;28;20035;-66
2021/01/16 06:46:42;;;;;;;8.68;4.65;;;-3274.10;81.40;;;;;;5058497;28;20043;-67
2021/01/16 06:49:22;;;;;;;19.55;10.05;;;-3274.00;81.30;;;;;;5069515;28;20493;-67
2021/01/16 06:52:07;;;;;;;21.50;10.52;;;-3273.90;81.90;;;;;;5071112;28;20470;-66
2021/01/16 06:54:37;;;;;;;15.95;9.20;;;-3273.90;82.60;;;;;;5061512;28;20020;-66
2021/01/16 06:57:14;;;;;;;16.25;8.95;;;-3273.90;83.00;;;;;;5069711;28;20514;-68
2021/01/16 06:59:41;;;;;;;15.88;7.32;;;-3273.90;83.20;;;;;;5088380;28;20505;-66
2021/01/16 07:02:16;;;;;;;16.25;8.30;;;-3274.00;83.90;;;;;;5077718;28;20028;-68
2021/01/16 07:04:55;;;;;;;10.13;4.85;;;-3274.20;82.60;;;;;;5071613;28;20028;-67
2021/01/16 07:07:32;;;;;;;8.52;5.05;;;-3274.10;82.30;;;;;;5048748;28;20028;-66
2021/01/16 07:10:02;;;;;;;9.43;5.43;;;-3274.00;82.00;;;;;;5071164;28;20024;-67
2021/01/16 07:12:28;;;;;;;9.15;5.68;;;-3274.00;83.20;;;;;;5059313;28;20114;-67
2021/01/16 07:14:55;;;;;;;8.38;5.40;;;-3273.90;82.40;;;;;;5087807;28;20095;-67
2021/01/16 07:17:27;;;;;;;10.45;5.75;;;-3273.90;83.30;;;;;;5065975;28;20031;-66
2021/01/16 07:19:56;;;;;;;9.73;6.03;;;-3274.00;83.40;;;;;;5079370;28;20028;-67
2021/01/16 07:22:30;;;;;;;9.63;5.40;;;-3273.90;82.70;;;;;;5090549;28;20024;-67
2021/01/16 07:25:04;;;;;;;8.20;4.85;;;-3273.90;83.40;;;;;;5062694;28;20020;-66
2021/01/16 07:27:33;;;;;;;8.52;5.53;;;-3274.00;83.20;;;;;;5063649;28;20078;-66
2021/01/16 07:30:01;;;;;;;8.60;5.53;;;-3273.90;83.20;;;;;;5089517;28;20028;-67
2021/01/16 07:32:49;;;;;;;6.82;5.35;;;-3273.90;83.10;;;;;;5059032;28;20056;-67
2021/01/16 07:35:17;;;;;;;9.85;5.57;;;-3274.00;83.00;;;;;;5066146;28;20013;-67
2021/01/16 07:37:47;;;;;;;9.00;5.35;;;-3274.00;82.70;;;;;;5073375;28;20017;-69
2021/01/16 07:40:23;;;;;;;9.55;5.03;;;-3273.90;83.30;;;;;;5090379;28;20099;-66
2021/01/16 07:42:52;;;;;;;14.18;6.30;;;-3273.90;83.90;;;;;;5061269;28;20413;-66
2021/01/16 07:45:29;;;;;;;10.20;5.97;;;-3273.90;83.30;;;;;;5067210;28;20035;-66
2021/01/16 07:48:01;;;;;;;11.80;6.25;;;-3274.00;84.10;;;;;;5060825;28;20040;-67
2021/01/16 07:50:27;;;;;;;9.82;6.47;;;-3274.00;84.00;;;;;;5057065;28;20024;-66
2021/01/16 07:53:04;;;;;;;9.73;6.07;;;-3274.00;85.20;;;;;;5081086;28;20021;-67
2021/01/16 07:55:35;;;;;;;12.15;6.03;;;-3274.10;85.20;;;;;;5075979;28;20455;-67
2021/01/16 07:58:30;;;;;;;11.32;7.32;;;-3274.20;84.40;;;;;;5077012;28;20146;-67
2021/01/16 08:01:16;;;;;;;14.45;6.68;;;-3274.20;83.80;;;;;;5066454;28;20516;-69
2021/01/16 08:03:57;;;;;;;14.35;6.53;;;-3274.30;84.50;;;;;;5018910;28;20041;-71
2021/01/16 08:06:31;;;;;;;;;;;-3274.30;84.60;;;;;;5083527;28;20027;-67
2021/01/16 08:09:03;;;;;;;11.57;6.45;;;-3274.40;84.40;;;;;;5086162;28;19908;-69
2021/01/16 08:11:35;;;;;;;12.05;6.47;;;-3274.40;83.50;;;;;;5066169;28;20027;-70
2021/01/16 08:14:03;;;;;;;10.00;6.40;;;-3274.40;83.50;;;;;;5059779;28;20078;-68
2021/01/16 08:16:29;;;;;;;13.25;6.88;;;-3274.50;83.60;;;;;;5089952;28;20020;-69
2021/01/16 08:19:12;;;;;;;11.25;5.82;;;-3274.60;83.50;;;;;;5061683;28;20028;-68
2021/01/16 08:21:53;;;;;;;10.27;6.18;;;-3274.60;83.50;;;;;;5082364;28;20108;-67
2021/01/16 08:24:21;;;;;;;13.15;7.18;;;-3274.60;82.10;;;;;;5089348;28;20034;-69
2021/01/16 08:27:05;;;;;;;10.77;6.05;;;-3274.70;83.80;;;;;;5059467;28;20532;-68
2021/01/16 08:29:32;;;;;;;11.23;6.40;;;-3274.70;83.10;;;;;;5081078;28;20028;-68
2021/01/16 08:32:11;;;;;;;12.13;5.95;;;-3274.70;82.60;;;;;;5069936;28;20027;-68
2021/01/16 08:34:51;;;;;;;10.82;5.90;;;-3274.80;82.30;;;;;;5060907;28;20033;-68
2021/01/16 08:37:36;;;;;;;9.63;6.20;;;-3274.60;81.50;;;;;;5072110;28;20458;-69
2021/01/16 08:40:09;;;;;;;12.38;6.65;;;-3274.60;83.30;;;;;;5076805;28;20477;-70
2021/01/16 08:42:49;;;;;;;11.73;5.85;;;-3274.70;82.90;;;;;;5068841;28;20438;-69
2021/01/16 08:45:17;;;;;;;11.23;4.70;;;-3274.90;82.90;;;;;;5048130;28;20448;-68
2021/01/16 08:47:54;;;;;;;10.88;6.00;;;-3274.90;82.50;;;;;;5085307;28;20093;-70
2021/01/16 08:50:23;;;;;;;18.00;7.78;;;-3274.80;81.60;;;;;;5058230;28;20515;-69
2021/01/16 08:52:48;;;;;;;11.68;7.22;;;-3274.80;82.50;;;;;;5091289;28;20017;-69
2021/01/16 08:55:14;;;;;;;13.38;6.72;;;-3274.90;82.50;;;;;;5082148;28;20072;-69
2021/01/16 08:57:41;;;;;;;16.05;7.85;;;-3274.90;82.40;;;;;;5078993;28;20017;-68
2021/01/16 09:00:20;;;;;;;17.30;8.27;;;-3274.90;82.60;;;;;;5070585;28;20028;-69
2021/01/16 09:03:19;;;;;;;17.58;9.40;;;-3274.90;82.20;;;;;;5044893;28;20063;-70
2021/01/16 09:05:46;;;;;;;22.48;11.00;;;-3274.90;82.70;;;;;;5074212;28;20021;-69
2021/01/16 09:08:23;;;;;;;24.75;10.40;;;-3275.00;82.40;;;;;;5085515;28;20020;-69
2021/01/16 09:10:50;;;;;;;20.17;10.25;;;-3275.10;82.40;;;;;;5077528;28;20020;-68
2021/01/16 09:13:26;;;;;;;21.27;9.60;;;-3275.20;82.30;;;;;;5082486;28;20031;-66
2021/01/16 09:15:57;;;;;;;22.95;10.55;;;-3275.20;81.60;;;;;;5086170;28;20385;-67
2021/01/16 09:18:23;;;;;;;19.45;10.00;;;-3275.20;81.40;;;;;;5075411;28;20108;-68
2021/01/16 09:20:51;;;;;;;22.00;10.30;;;-3275.30;81.80;;;;;;5086764;28;20481;-69
2021/01/16 09:23:26;;;;;;;19.17;9.35;;;-3275.30;82.00;;;;;;5082643;28;20073;-67
2021/01/16 09:26:03;;;;;;;16.60;8.70;;;-3275.30;80.90;;;;;;5077243;28;20028;-69
2021/01/16 09:28:39;;;;;;;42.80;22.88;;;-3275.30;81.50;;;;;;5069826;28;20039;-70
2021/01/16 09:31:40;;;;;;;20.88;11.45;;;-3275.30;82.60;;;;;;5079363;28;20020;-70
2021/01/16 09:34:10;;;;;;;17.00;9.07;;;-3275.40;81.40;;;;;;5058191;28;20054;-71
2021/01/16 09:36:42;;;;;;;27.63;15.53;;;-3275.50;81.20;;;;;;5067642;28;20031;-70
2021/01/16 09:39:24;;;;;;;25.23;12.07;;;-3275.70;81.50;;;;;;5079599;28;20337;-69
2021/01/16 09:41:54;;;;;;;18.65;8.38;;;-3275.70;79.80;;;;;;5063022;28;20016;-70
2021/01/16 09:44:37;;;;;;;15.68;8.50;;;-3275.80;79.90;;;;;;5048926;28;20036;-72
2021/01/16 09:47:03;;;;;;;14.98;7.70;;;-3275.60;79.80;;;;;;5060637;28;20036;-70
2021/01/16 09:49:45;;;;;;;16.98;9.23;;;-3275.70;79.80;;;;;;5061078;28;20086;-70
2021/01/16 09:52:11;;;;;;;17.35;8.95;;;-3275.70;78.90;;;;;;5085641;28;20355;-67
2021/01/16 09:54:41;;;;;;;15.02;8.23;;;-3275.80;79.50;;;;;;5074964;28;20032;-67
2021/01/16 09:57:08;;;;;;;14.57;8.75;;;-3275.80;79.40;;;;;;5044383;28;20437;-66
2021/01/16 09:59:34;;;;;;;23.55;13.45;;;-3276.00;79.30;;;;;;5064819;28;20024;-67
2021/01/16 10:02:06;;;;;;;14.27;8.85;;;-3276.20;78.70;;;;;;5075258;28;20036;-67
2021/01/16 10:04:44;;;;;;;18.88;10.73;;;-3276.30;78.30;;;;;;5069288;28;20021;-68
2021/01/16 10:07:17;;;;;;;19.75;8.18;;;-3276.50;77.50;;;;;;5049464;28;20055;-67
2021/01/16 10:09:45;;;;;;;46.17;17.70;;;-3276.50;76.70;;;;;;5087152;28;20031;-66
2021/01/16 10:12:32;;;;;;;75.50;28.25;;;-3276.50;77.10;;;;;;5091785;28;20389;-66
2021/01/16 10:15:09;;;;;;;44.22;17.85;;;-3276.60;77.40;;;;;;5084023;28;20020;-67
2021/01/16 10:17:39;;;;;;;22.10;10.13;;;-3276.70;76.30;;;;;;5083253;28;20017;-67
2021/01/16 10:20:12;;;;;;;12.77;7.03;;;-3276.70;76.20;;;;;;5073420;28;20032;-67
2021/01/16 10:22:52;;;;;;;28.40;13.57;;;-3276.50;76.00;;;;;;5063639;28;20763;-67
2021/01/16 10:25:22;;;;;;;13.13;7.63;;;-3276.60;77.10;;;;;;5067260;28;20064;-67
2021/01/16 10:27:49;;;;;;;20.15;9.30;;;-3276.70;75.50;;;;;;5088653;28;20158;-68
2021/01/16 10:30:17;;;;;;;11.57;5.90;;;-3276.60;75.30;;;;;;5078038;28;20374;-67
2021/01/16 10:32:43;;;;;;;14.75;8.25;;;-3276.50;74.90;;;;;;5071927;28;20040;-67
2021/01/16 10:35:09;;;;;;;12.13;6.40;;;-3276.50;75.50;;;;;;5079550;28;20023;-67
2021/01/16 10:37:41;;;;;;;19.45;9.82;;;-3276.40;74.90;;;;;;5086398;28;20698;-68
2021/01/16 10:40:08;;;;;;;21.33;10.43;;;-3276.50;75.60;;;;;;5078044;28;20032;-68
2021/01/16 10:42:45;;;;;;;23.38;10.32;;;-3276.50;75.40;;;;;;5088558;28;20046;-69
2021/01/16 10:45:12;;;;;;;23.77;9.57;;;-3276.70;76.50;;;;;;5071809;28;20024;-70
2021/01/16 10:47:41;;;;;;;14.60;7.03;;;0.00;75.30;;;;;;5065410;28;20052;-68
2021/01/16 10:50:10;;;;;;;72.15;28.52;;;-3276.60;73.00;;;;;;5091919;28;20111;-68
2021/01/16 10:52:37;;;;;;;24.10;11.30;;;-3276.60;75.10;;;;;;5062498;28;20016;-68
2021/01/16 10:55:05;;;;;;;37.65;15.98;;;-3276.60;74.30;;;;;;5068814;28;20107;-70
2021/01/16 10:57:41;;;;;;;25.23;12.45;;;-3276.50;75.30;;;;;;5086149;28;20016;-68
2021/01/16 11:00:11;;;;;;;19.60;10.00;;;-3276.60;74.90;;;;;;5056573;28;20021;-68
2021/01/16 11:02:40;;;;;;;20.42;10.27;;;-3276.50;73.40;;;;;;5044751;28;20012;-67
2021/01/16 11:05:15;;;;;;;22.33;9.02;;;-3276.40;74.30;;;;;;5068482;28;20031;-69
2021/01/16 11:07:46;;;;;;;17.33;7.88;;;-3276.60;73.40;;;;;;5061682;28;20077;-67
2021/01/16 11:10:16;;;;;;;12.63;7.37;;;-3276.70;73.50;;;;;;5077454;28;20027;-69
2021/01/16 11:12:43;;;;;;;25.55;11.23;;;-3276.60;73.00;;;;;;5071653;28;20262;-68
2021/01/16 11:15:28;;;;;;;8.57;4.90;;;-3276.60;73.10;;;;;;5063886;28;20492;-65
2021/01/16 11:17:56;;;;;;;14.27;6.70;;;-3276.60;72.00;;;;;;5078090;28;20385;-67
2021/01/16 11:20:27;;;;;;;41.50;16.45;;;-3276.60;73.10;;;;;;5090419;28;20508;-68
2021/01/16 11:23:04;;;;;;;28.50;13.05;;;-3276.50;72.80;;;;;;5080282;28;20047;-67
2021/01/16 11:25:51;;;;;;;21.13;9.27;;;-3276.50;72.50;;;;;;5059988;28;20032;-67
2021/01/16 11:28:20;;;;;;;19.55;10.63;;;-3276.60;72.60;;;;;;5086404;28;20618;-66
2021/01/16 11:30:48;;;;;;;13.98;8.10;;;-3276.60;72.60;;;;;;5077779;28;20046;-67
2021/01/16 11:33:25;;;;;;;31.38;15.43;;;-3276.70;71.40;;;;;;5082929;28;20020;-68
2021/01/16 11:36:15;;;;;;;20.77;10.45;;;-3276.70;72.80;;;;;;5076715;28;20020;-68
2021/01/16 11:38:46;;;;;;;33.20;14.43;;;-3276.70;72.20;;;;;;5062431;28;20039;-68
2021/01/16 11:41:14;;;;;;;33.43;14.23;;;-3276.70;72.90;;;;;;5084810;28;20028;-67
2021/01/16 11:43:41;;;;;;;29.58;14.25;;;-3276.70;72.30;;;;;;5059307;28;20081;-67
2021/01/16 11:46:10;;;;;;;28.40;13.98;;;0.00;71.00;;;;;;5068227;28;20510;-66
2021/01/16 11:48:38;;;;;;;17.30;9.63;;;-3276.70;71.30;;;;;;5100182;22;20043;-74
2021/01/16 11:51:21;;;;;;;32.80;15.43;;;-3276.60;70.30;;;;;;5067522;28;20075;-73
2021/01/16 11:53:49;;;;;;;66.95;30.95;;;-3276.70;71.60;;;;;;5087555;28;20028;-76
2021/01/16 11:56:16;;;;;;;46.28;20.42;;;-3276.70;72.30;;;;;;5076465;28;20017;-77
2021/01/16 11:58:44;;;;;;;38.33;17.60;;;-3276.60;70.30;;;;;;5070428;28;20021;-71
2021/01/16 12:01:12;;;;;;;31.00;15.13;;;-3276.70;70.90;;;;;;5063757;28;20426;-72
2021/01/16 12:03:38;;;;;;;40.60;20.02;;;-3276.70;70.00;;;;;;5080807;28;20016;-74
2021/01/16 12:06:15;;;;;;;77.80;30.80;;;-3276.60;70.80;;;;;;5082220;28;20016;-73
2021/01/16 12:08:44;;;;;;;68.55;27.20;;;-3276.50;69.70;;;;;;5044334;28;20017;-71
2021/01/16 12:11:11;;;;;;;25.58;11.93;;;-3276.40;70.30;;;;;;5084461;28;20070;-73
2021/01/16 12:13:38;;;;;;;40.42;17.42;;;-3276.40;70.00;;;;;;5085670;28;20024;-76
2021/01/16 12:16:04;;;;;;;29.00;15.32;;;-3276.50;70.00;;;;;;5076553;28;20485;-76
2021/01/16 12:18:36;;;;;;;33.17;15.50;;;-3276.40;69.40;;;;;;5089840;28;20099;-75
2021/01/16 12:21:02;;;;;;;25.73;12.50;;;-3276.60;70.00;;;;;;5074035;28;20013;-75
2021/01/16 12:23:40;;;;;;;28.83;13.43;;;-3276.60;69.70;;;;;;5072769;28;20028;-75
2021/01/16 12:26:15;;;;;;;17.73;9.43;;;-3276.50;69.60;;;;;;5089340;28;20055;-74
2021/01/16 12:28:49;;;;;;;32.88;14.57;;;-3276.40;70.20;;;;;;5061095;28;20027;-77
2021/01/16 12:31:23;;;;;;;32.83;14.07;;;-3276.40;70.90;;;;;;5083215;28;20025;-72